createdAt,value
2022-10-12T00:01:12.024Z,101250.94
2022-10-12T00:03:40.381Z,101248.31
2022-10-12T00:06:11.405Z,101255.78
2022-10-12T00:08:40.813Z,101253.09
2022-10-12T00:11:15.183Z,101252.50
2022-10-12T00:13:43.811Z,101258.41
2022-10-12T00:16:13.492Z,101251.03
2022-10-12T00:18:42.047Z,101255.13
2022-10-12T00:21:15.207Z,101253.09
2022-10-12T00:23:44.681Z,101258.88
2022-10-12T00:26:15.876Z,101265.34
2022-10-12T00:28:46.231Z,101262.56
2022-10-12T00:31:16.998Z,101260.28
2022-10-12T00:33:46.012Z,101257.28
2022-10-12T00:36:26.632Z,101260.88
2022-10-12T00:38:56.396Z,101256.13
2022-10-12T00:41:28.211Z,101251.84
2022-10-12T00:43:58.459Z,101250.97
2022-10-12T00:46:35.225Z,101257.97
2022-10-12T00:49:17.983Z,101256.41
2022-10-12T00:51:53.878Z,101259.91
2022-10-12T00:54:31.277Z,101257.63
2022-10-12T00:57:02.911Z,101252.75
2022-10-12T00:59:58.110Z,101249.44
2022-10-12T01:02:28.108Z,101253.16
2022-10-12T01:04:57.702Z,101252.28
2022-10-12T01:07:26.197Z,101253.75
2022-10-12T01:09:54.397Z,101255.88
2022-10-12T01:12:23.503Z,101258.41
2022-10-12T01:14:51.889Z,101259.50
2022-10-12T01:17:39.546Z,101250.06
2022-10-12T01:20:17.166Z,101254.47
2022-10-12T01:23:18.732Z,101248.53
2022-10-12T01:26:10.824Z,101240.03
2022-10-12T01:28:53.925Z,101243.59
2022-10-12T01:31:33.100Z,101244.69
2022-10-12T01:34:06.502Z,101239.16
2022-10-12T01:36:40.648Z,101247.31
2022-10-12T01:39:08.689Z,101243.91
2022-10-12T01:41:42.827Z,101244.28
2022-10-12T01:44:10.885Z,101241.25
2022-10-12T01:46:43.805Z,101234.13
2022-10-12T01:49:15.957Z,101244.84
2022-10-12T01:52:09.029Z,101248.31
2022-10-12T01:55:01.514Z,101251.88
2022-10-12T01:57:51.330Z,101252.72
2022-10-12T02:00:20.405Z,101251.78
2022-10-12T02:02:54.227Z,101254.28
2022-10-12T02:05:25.521Z,101254.63
2022-10-12T02:08:06.863Z,101250.78
2022-10-12T02:10:40.340Z,101250.09
2022-10-12T02:13:13.140Z,101253.56
2022-10-12T02:15:43.242Z,101254.50
2022-10-12T02:18:14.535Z,101249.53
2022-10-12T02:20:44.617Z,101250.47
2022-10-12T02:23:18.913Z,101253.34
2022-10-12T02:25:49.285Z,101243.09
2022-10-12T02:28:22.422Z,101232.84
2022-10-12T02:31:18.313Z,101238.69
2022-10-12T02:34:02.273Z,101238.13
2022-10-12T02:36:39.620Z,101233.06
2022-10-12T02:39:16.413Z,101232.97
2022-10-12T02:41:59.091Z,101229.53
2022-10-12T02:44:32.058Z,101229.09
2022-10-12T02:47:02.874Z,101233.16
2022-10-12T02:49:34.282Z,101225.75
2022-10-12T02:52:05.192Z,101237.78
2022-10-12T02:54:33.237Z,101237.31
2022-10-12T02:57:01.458Z,101235.84
2022-10-12T02:59:29.540Z,101240.34
2022-10-12T03:01:57.649Z,101239.38
2022-10-12T03:04:26.302Z,101239.00
2022-10-12T03:06:54.372Z,101234.25
2022-10-12T03:09:22.579Z,101231.03
2022-10-12T03:11:51.628Z,101231.31
2022-10-12T03:14:21.256Z,101231.44
2022-10-12T03:16:49.417Z,101228.69
2022-10-12T03:19:17.818Z,101228.81
2022-10-12T03:21:45.953Z,101227.97
2022-10-12T03:24:14.477Z,101222.03
2022-10-12T03:26:42.561Z,101224.75
2022-10-12T03:29:10.764Z,101220.72
2022-10-12T03:31:38.837Z,101223.47
2022-10-12T03:34:07.036Z,101223.34
2022-10-12T03:36:35.161Z,101225.38
2022-10-12T03:39:03.495Z,101225.13
2022-10-12T03:41:31.605Z,101220.84
2022-10-12T03:43:59.840Z,101225.47
2022-10-12T03:46:27.912Z,101228.22
2022-10-12T03:48:56.035Z,101225.75
2022-10-12T03:51:24.225Z,101232.69
2022-10-12T03:53:52.396Z,101229.16
2022-10-12T03:56:20.588Z,101230.44
2022-10-12T03:58:48.669Z,101235.81
2022-10-12T04:01:16.876Z,101234.84
2022-10-12T04:03:45.053Z,101229.59
2022-10-12T04:06:13.184Z,101229.97
2022-10-12T04:08:43.458Z,101228.31
2022-10-12T04:11:13.129Z,101225.94
2022-10-12T04:13:41.180Z,101226.63
2022-10-12T04:16:12.301Z,101222.84
2022-10-12T04:18:45.568Z,101228.91
2022-10-12T04:21:15.905Z,101224.59
2022-10-12T04:23:44.226Z,101228.78
2022-10-12T04:26:12.452Z,101235.22
2022-10-12T04:28:40.607Z,101231.50
2022-10-12T04:31:08.864Z,101233.91
2022-10-12T04:33:36.955Z,101228.66
2022-10-12T04:36:05.278Z,101224.34
2022-10-12T04:38:33.346Z,101225.06
2022-10-12T04:41:01.462Z,101223.28
2022-10-12T04:43:29.637Z,101235.34
2022-10-12T04:45:59.905Z,101232.47
2022-10-12T04:48:28.358Z,101236.78
2022-10-12T04:50:56.488Z,101236.56
2022-10-12T04:53:24.714Z,101236.63
2022-10-12T04:55:52.854Z,101236.84
2022-10-12T04:58:21.011Z,101238.66
2022-10-12T05:00:49.515Z,101238.06
2022-10-12T05:03:17.644Z,101240.53
2022-10-12T05:05:46.010Z,101247.47
2022-10-12T05:08:14.191Z,101238.53
2022-10-12T05:10:42.459Z,101240.69
2022-10-12T05:13:10.621Z,101242.47
2022-10-12T05:15:38.703Z,101242.72
2022-10-12T05:18:06.876Z,101246.66
2022-10-12T05:20:37.136Z,101246.53
2022-10-12T05:23:05.292Z,101242.72
2022-10-12T05:25:35.331Z,101244.13
2022-10-12T05:28:03.737Z,101246.28
2022-10-12T05:30:31.875Z,101252.38
2022-10-12T05:33:00.012Z,101257.22
2022-10-12T05:35:28.194Z,101258.44
2022-10-12T05:37:56.236Z,101263.00
2022-10-12T05:40:24.470Z,101252.75
2022-10-12T05:42:52.557Z,101261.94
2022-10-12T05:45:20.623Z,101256.69
2022-10-12T05:47:48.693Z,101258.09
2022-10-12T05:50:17.681Z,101258.94
2022-10-12T05:52:45.893Z,101264.53
2022-10-12T05:55:14.282Z,101259.66
2022-10-12T05:57:42.335Z,101263.59
2022-10-12T06:00:11.059Z,101255.13
2022-10-12T06:02:39.735Z,101264.88
2022-10-12T06:05:08.676Z,101264.53
2022-10-12T06:07:36.977Z,101272.28
2022-10-12T06:10:08.965Z,101269.50
2022-10-12T06:12:37.347Z,101277.16
2022-10-12T06:15:06.348Z,101279.19
2022-10-12T06:17:34.555Z,101287.97
2022-10-12T06:20:02.807Z,101278.44
2022-10-12T06:22:30.943Z,101285.97
2022-10-12T06:24:59.285Z,101282.13
2022-10-12T06:27:27.375Z,101284.47
2022-10-12T06:29:55.670Z,101290.69
2022-10-12T06:32:23.948Z,101300.66
2022-10-12T06:34:52.251Z,101299.22
2022-10-12T06:37:48.141Z,101305.16
2022-10-12T06:40:09.064Z,101294.00
2022-10-12T06:42:37.382Z,101301.16
2022-10-12T06:45:07.865Z,101306.38
2022-10-12T06:47:38.506Z,101305.19
2022-10-12T06:50:08.095Z,101303.03
2022-10-12T06:52:37.041Z,101300.78
2022-10-12T06:55:06.824Z,101307.47
2022-10-12T06:57:34.972Z,101309.19
2022-10-12T07:00:03.701Z,101317.53
2022-10-12T07:02:31.841Z,101312.16
2022-10-12T07:04:59.965Z,101317.13
2022-10-12T07:07:31.881Z,101310.81
2022-10-12T07:10:00.482Z,101316.94
2022-10-12T07:12:28.624Z,101316.69
2022-10-12T07:14:57.958Z,101314.63
2022-10-12T07:17:26.119Z,101314.63
2022-10-12T07:19:54.317Z,101312.94
2022-10-12T07:22:22.474Z,101309.97
2022-10-12T07:24:50.781Z,101316.28
2022-10-12T07:27:19.073Z,101308.34
2022-10-12T07:29:50.761Z,101295.84
2022-10-12T07:32:19.010Z,101294.16
2022-10-12T07:34:47.142Z,101302.34
2022-10-12T07:37:15.718Z,101296.69
2022-10-12T07:39:44.582Z,101295.50
2022-10-12T07:42:18.246Z,101297.59
2022-10-12T07:44:47.647Z,101292.44
2022-10-12T07:47:17.712Z,101292.66
2022-10-12T07:49:45.901Z,101290.31
2022-10-12T07:52:14.159Z,101291.38
2022-10-12T07:54:42.406Z,101285.91
2022-10-12T07:57:10.838Z,101285.75
2022-10-12T07:59:38.943Z,101292.22
2022-10-12T08:02:10.225Z,101290.72
2022-10-12T08:04:38.378Z,101289.22
2022-10-12T08:07:06.674Z,101295.69
2022-10-12T08:09:36.585Z,101289.50
2022-10-12T08:12:04.938Z,101293.47
2022-10-12T08:14:33.011Z,101291.13
2022-10-12T08:17:01.780Z,101299.44
2022-10-12T08:19:35.105Z,101296.25
2022-10-12T08:22:03.784Z,101298.84
2022-10-12T08:24:31.929Z,101295.31
2022-10-12T08:27:01.560Z,101294.13
2022-10-12T08:29:29.977Z,101285.97
2022-10-12T08:31:58.204Z,101285.91
2022-10-12T08:34:26.369Z,101280.97
2022-10-12T08:36:54.778Z,101289.41
2022-10-12T08:39:23.028Z,101284.88
2022-10-12T08:42:27.066Z,101288.03
2022-10-12T08:45:14.793Z,101279.84
2022-10-12T08:48:01.595Z,101279.63
2022-10-12T08:50:35.864Z,101276.06
2022-10-12T08:53:23.216Z,101269.81
2022-10-12T08:55:52.688Z,101278.31
2022-10-12T08:58:36.746Z,101280.56
2022-10-12T09:01:29.073Z,101273.22
2022-10-12T09:04:17.354Z,101271.91
2022-10-12T09:07:09.432Z,101278.56
2022-10-12T09:09:48.254Z,101283.41
2022-10-12T09:12:37.750Z,101271.00
2022-10-12T09:15:20.081Z,101270.53
2022-10-12T09:17:54.656Z,101273.00
2022-10-12T09:20:31.363Z,101273.03
2022-10-12T09:23:17.336Z,101269.22
2022-10-12T09:25:47.290Z,101269.34
2022-10-12T09:28:40.518Z,101268.22
2022-10-12T09:31:30.313Z,101275.94
2022-10-12T09:34:04.915Z,101266.16
2022-10-12T09:36:38.804Z,101271.56
2022-10-12T09:39:32.227Z,101266.25
2022-10-12T09:42:00.679Z,101273.56
2022-10-12T09:44:37.829Z,101266.44
2022-10-12T09:47:28.086Z,101268.38
2022-10-12T09:49:58.868Z,101270.97
2022-10-12T09:52:43.384Z,101265.06
2022-10-12T09:55:23.679Z,101268.72
2022-10-12T09:58:02.187Z,101268.13
2022-10-12T10:00:33.366Z,101264.53
2022-10-12T10:03:03.214Z,101268.28
2022-10-12T10:05:33.132Z,101264.69
2022-10-12T10:08:23.476Z,101271.59
2022-10-12T10:10:53.113Z,101268.91
2022-10-12T10:13:23.966Z,101260.09
2022-10-12T10:16:04.203Z,101263.94
2022-10-12T10:18:44.493Z,101259.59
2022-10-12T10:21:14.658Z,101260.31
2022-10-12T10:23:44.742Z,101262.59
2022-10-12T10:26:15.620Z,101260.97
2022-10-12T10:28:46.936Z,101260.47
2022-10-12T10:31:17.092Z,101267.34
2022-10-12T10:33:45.307Z,101268.16
2022-10-12T10:36:23.353Z,101272.53
2022-10-12T10:39:05.537Z,101265.84
2022-10-12T10:41:39.548Z,101265.28
2022-10-12T10:44:32.941Z,101271.72
2022-10-12T10:47:13.007Z,101268.59
2022-10-12T10:49:51.977Z,101266.47
2022-10-12T10:52:40.713Z,101268.66
2022-10-12T10:55:19.750Z,101274.63
2022-10-12T10:57:54.917Z,101268.41
2022-10-12T11:00:38.684Z,101269.09
2022-10-12T11:03:33.439Z,101263.47
2022-10-12T11:06:21.811Z,101270.34
2022-10-12T11:09:00.031Z,101271.81
2022-10-12T11:11:32.368Z,101263.63
2022-10-12T11:14:08.162Z,101260.56
2022-10-12T11:16:48.792Z,101262.28
2022-10-12T11:19:42.329Z,101263.06
2022-10-12T11:22:20.304Z,101253.25
2022-10-12T11:25:10.788Z,101257.25
2022-10-12T11:27:41.165Z,101253.59
2022-10-12T11:30:22.481Z,101256.03
2022-10-12T11:33:01.163Z,101250.81
2022-10-12T11:35:35.599Z,101248.47
2022-10-12T11:38:27.209Z,101241.69
2022-10-12T11:41:13.680Z,101241.41
2022-10-12T11:44:02.503Z,101240.16
2022-10-12T11:47:02.867Z,101235.19
2022-10-12T11:49:44.224Z,101231.44
2022-10-12T11:52:13.075Z,101230.28
2022-10-12T11:55:19.423Z,101227.19
2022-10-12T11:57:49.669Z,101227.78
2022-10-12T12:00:27.045Z,101223.72
2022-10-12T12:03:25.483Z,101215.50
2022-10-12T12:05:53.619Z,101215.69
2022-10-12T12:08:41.675Z,101209.53
2022-10-12T12:11:22.098Z,101210.56
2022-10-12T12:13:50.840Z,101207.03
2022-10-12T12:16:18.888Z,101207.03
2022-10-12T12:19:38.701Z,101199.00
2022-10-12T12:22:29.154Z,101203.47
2022-10-12T12:25:20.048Z,101194.44
2022-10-12T12:27:51.409Z,101204.97
2022-10-12T12:30:19.496Z,101200.03
2022-10-12T12:32:59.665Z,101204.53
2022-10-12T12:35:30.473Z,101201.78
2022-10-12T12:38:11.277Z,101193.22
2022-10-12T12:40:41.744Z,101193.28
2022-10-12T12:43:28.390Z,101193.44
2022-10-12T12:46:03.610Z,101188.94
2022-10-12T12:48:43.422Z,101188.13
2022-10-12T12:51:15.700Z,101178.59
2022-10-12T12:54:00.789Z,101180.06
2022-10-12T12:56:49.704Z,101185.25
2022-10-12T12:59:36.315Z,101177.00
2022-10-12T13:02:28.266Z,101172.47
2022-10-12T13:05:15.283Z,101174.91
2022-10-12T13:07:49.408Z,101176.56
2022-10-12T13:10:29.528Z,101162.59
2022-10-12T13:13:24.688Z,101167.31
2022-10-12T13:15:55.785Z,101169.78
2022-10-12T13:18:48.407Z,101165.22
2022-10-12T13:21:57.081Z,101170.38
2022-10-12T13:24:34.429Z,101161.97
2022-10-12T13:27:18.542Z,101167.31
2022-10-12T13:29:58.269Z,101166.28
2022-10-12T13:32:34.472Z,101165.03
2022-10-12T13:35:15.084Z,101159.69
2022-10-12T13:37:43.164Z,101159.09
2022-10-12T13:40:38.713Z,101159.69
2022-10-12T13:43:19.005Z,101160.91
2022-10-12T13:45:48.661Z,101157.78
2022-10-12T13:48:34.106Z,101153.72
2022-10-12T13:51:25.796Z,101153.34
2022-10-12T13:53:54.581Z,101144.66
2022-10-12T13:56:28.396Z,101148.78
2022-10-12T13:59:05.351Z,101150.22
2022-10-12T14:02:00.624Z,101144.88
2022-10-12T14:04:34.741Z,101143.03
2022-10-12T14:07:13.853Z,101151.47
2022-10-12T14:09:46.525Z,101147.28
2022-10-12T14:12:15.741Z,101152.00
2022-10-12T14:14:46.572Z,101145.84
2022-10-12T14:17:19.372Z,101141.66
2022-10-12T14:19:53.541Z,101149.06
2022-10-12T14:22:26.765Z,101148.19
2022-10-12T14:25:15.591Z,101146.91
2022-10-12T14:27:43.906Z,101133.28
2022-10-12T14:30:18.170Z,101138.41
2022-10-12T14:32:46.798Z,101139.63
2022-10-12T14:35:21.361Z,101135.72
2022-10-12T14:37:50.890Z,101145.56
2022-10-12T14:40:27.806Z,101144.84
2022-10-12T14:43:04.917Z,101138.94
2022-10-12T14:45:34.088Z,101143.41
2022-10-12T14:48:02.703Z,101142.47
2022-10-12T14:50:32.413Z,101144.25
2022-10-12T14:53:07.708Z,101141.13
2022-10-12T14:55:36.012Z,101141.03
2022-10-12T14:58:08.211Z,101140.91
2022-10-12T15:00:37.767Z,101141.63
2022-10-12T15:03:06.274Z,101132.44
2022-10-12T15:05:34.947Z,101135.63
2022-10-12T15:08:09.125Z,101138.03
2022-10-12T15:10:38.239Z,101136.66
2022-10-12T15:13:06.384Z,101135.97
2022-10-12T15:15:45.754Z,101132.03
2022-10-12T15:18:13.981Z,101127.25
2022-10-12T15:20:46.781Z,101122.22
2022-10-12T15:23:17.910Z,101131.56
2022-10-12T15:25:52.950Z,101130.00
2022-10-12T15:28:22.349Z,101124.59
2022-10-12T15:31:16.365Z,101125.53
2022-10-12T15:33:43.117Z,101124.13
2022-10-12T15:36:11.313Z,101126.16
2022-10-12T15:38:39.877Z,101129.28
2022-10-12T15:41:20.768Z,101127.72
2022-10-12T15:43:48.900Z,101129.66
2022-10-12T15:46:17.025Z,101131.38
2022-10-12T15:48:48.003Z,101127.16
2022-10-12T15:51:22.828Z,101135.84
2022-10-12T15:53:54.959Z,101126.13
2022-10-12T15:56:23.736Z,101134.56
2022-10-12T15:58:51.996Z,101137.13
2022-10-12T16:01:21.041Z,101132.78
2022-10-12T16:03:49.757Z,101131.66
2022-10-12T16:06:18.046Z,101123.28
2022-10-12T16:08:46.156Z,101126.91
2022-10-12T16:11:16.654Z,101129.31
2022-10-12T16:13:50.034Z,101133.53
2022-10-12T16:16:22.383Z,101132.00
2022-10-12T16:18:52.143Z,101136.59
2022-10-12T16:21:20.359Z,101137.84
2022-10-12T16:23:48.501Z,101146.66
2022-10-12T16:26:16.913Z,101143.84
2022-10-12T16:28:45.101Z,101144.69
2022-10-12T16:31:17.417Z,101149.38
2022-10-12T16:33:45.735Z,101149.75
2022-10-12T16:36:15.923Z,101149.13
2022-10-12T16:38:44.877Z,101147.00
2022-10-12T16:41:15.329Z,101143.53
2022-10-12T16:59:52.630Z,101165.41
2022-10-12T17:02:21.637Z,101160.13
2022-10-12T17:04:49.806Z,101169.41
2022-10-12T17:07:18.058Z,101170.69
2022-10-12T17:09:46.272Z,101172.19
2022-10-12T17:12:14.736Z,101171.69
2022-10-12T17:14:43.383Z,101176.97
2022-10-12T17:17:11.593Z,101172.97
2022-10-12T17:19:47.300Z,101172.16
2022-10-12T17:22:21.569Z,101175.44
2022-10-12T17:24:52.795Z,101186.22
2022-10-12T17:27:29.882Z,101191.66
2022-10-12T17:30:05.960Z,101188.50
2022-10-12T17:32:38.144Z,101192.81
2022-10-12T17:35:07.360Z,101193.44
2022-10-12T17:37:37.694Z,101202.53
2022-10-12T17:40:16.840Z,101201.31
2022-10-12T17:42:45.653Z,101200.59
2022-10-12T17:45:14.141Z,101208.38
2022-10-12T17:47:43.212Z,101203.06
2022-10-12T17:50:11.539Z,101209.81
2022-10-12T17:52:39.681Z,101219.38
2022-10-12T17:55:19.181Z,101211.09
2022-10-12T17:57:56.367Z,101207.59
2022-10-12T18:00:24.625Z,101219.66
2022-10-12T18:02:52.829Z,101222.59
2022-10-12T18:05:21.197Z,101231.28
2022-10-12T18:07:49.454Z,101225.63
2022-10-12T18:10:17.879Z,101228.91
2022-10-12T18:12:46.044Z,101224.38
2022-10-12T18:15:14.361Z,101220.84
2022-10-12T18:17:42.529Z,101223.28
2022-10-12T18:20:11.169Z,101217.94
2022-10-12T18:22:39.309Z,101221.97
2022-10-12T18:25:11.417Z,101220.78
2022-10-12T18:27:39.675Z,101226.34
2022-10-12T18:30:08.400Z,101221.69
2022-10-12T18:32:36.576Z,101225.94
2022-10-12T18:35:05.251Z,101226.22
2022-10-12T18:37:33.493Z,101219.41
2022-10-12T18:40:01.748Z,101212.63
2022-10-12T18:42:29.944Z,101214.88
2022-10-12T18:44:58.118Z,101224.09
2022-10-12T18:47:26.270Z,101222.91
2022-10-12T18:49:54.514Z,101220.25
2022-10-12T18:52:23.243Z,101228.06
2022-10-12T18:54:51.442Z,101229.50
2022-10-12T18:57:19.635Z,101228.97
2022-10-12T18:59:50.258Z,101235.66
2022-10-12T19:02:22.507Z,101235.13
2022-10-12T19:04:50.822Z,101238.75
2022-10-12T19:07:19.079Z,101244.31
2022-10-12T19:09:47.344Z,101247.25
2022-10-12T19:12:17.103Z,101242.13
2022-10-12T19:14:47.819Z,101236.03
2022-10-12T19:17:16.915Z,101234.44
2022-10-12T19:19:45.324Z,101244.03
2022-10-12T19:22:13.483Z,101236.53
2022-10-12T19:24:41.905Z,101244.59
2022-10-12T19:27:10.779Z,101239.84
2022-10-12T19:29:42.397Z,101243.75
2022-10-12T19:32:13.755Z,101241.41
2022-10-12T19:34:45.221Z,101249.59
2022-10-12T19:37:13.895Z,101243.63
2022-10-12T19:39:44.985Z,101242.81
2022-10-12T19:42:13.179Z,101240.03
2022-10-12T19:44:42.075Z,101245.31
2022-10-12T19:47:10.233Z,101243.63
2022-10-12T19:49:41.943Z,101244.34
2022-10-12T19:52:12.884Z,101249.94
2022-10-12T19:54:41.021Z,101245.06
2022-10-12T19:57:09.342Z,101248.97
2022-10-12T19:59:37.543Z,101243.53
2022-10-12T20:02:05.767Z,101245.47
2022-10-12T20:04:33.984Z,101250.63
2022-10-12T20:07:02.183Z,101256.88
2022-10-12T20:09:30.890Z,101253.53
2022-10-12T20:11:59.175Z,101252.16
2022-10-12T20:14:27.706Z,101254.69
2022-10-12T20:16:56.163Z,101264.38
2022-10-12T20:19:27.277Z,101262.31
2022-10-12T20:21:55.486Z,101260.38
2022-10-12T20:24:23.733Z,101268.69
2022-10-12T20:26:51.930Z,101267.16
2022-10-12T20:29:20.076Z,101262.44
2022-10-12T20:31:48.330Z,101267.03
2022-10-12T20:34:16.536Z,101271.47
2022-10-12T20:36:44.783Z,101264.38
2022-10-12T20:39:12.980Z,101270.25
2022-10-12T20:41:41.249Z,101272.72
2022-10-12T20:44:10.488Z,101278.28
2022-10-12T20:46:38.748Z,101283.00
2022-10-12T20:49:07.297Z,101285.78
2022-10-12T20:51:37.044Z,101294.63
2022-10-12T20:54:06.593Z,101292.69
2022-10-12T20:56:35.159Z,101285.47
2022-10-12T20:59:03.413Z,101289.06
2022-10-12T21:01:34.728Z,101282.69
2022-10-12T21:04:03.182Z,101287.13
2022-10-12T21:06:31.398Z,101290.31
2022-10-12T21:08:59.512Z,101289.22
2022-10-12T21:11:27.785Z,101290.72
2022-10-12T21:13:56.127Z,101296.84
2022-10-12T21:16:24.506Z,101298.25
2022-10-12T21:19:00.058Z,101295.72
2022-10-12T21:21:28.486Z,101298.78
2022-10-12T21:24:01.294Z,101295.59
2022-10-12T21:26:31.004Z,101300.69
2022-10-12T21:29:00.174Z,101290.94
2022-10-12T21:31:32.304Z,101303.69
2022-10-12T21:34:03.514Z,101297.56
2022-10-12T21:36:34.185Z,101297.56
2022-10-12T21:39:02.884Z,101297.03
2022-10-12T21:41:49.545Z,101301.72
2022-10-12T21:44:18.242Z,101302.69
2022-10-12T21:46:49.211Z,101294.41
2022-10-12T21:49:17.382Z,101299.53
2022-10-12T21:51:45.707Z,101296.47
2022-10-12T21:54:13.976Z,101293.00
2022-10-12T21:56:42.648Z,101290.50
2022-10-12T21:59:11.083Z,101296.59
2022-10-12T22:01:40.658Z,101285.81
2022-10-12T22:04:13.910Z,101294.16
2022-10-12T22:06:43.480Z,101293.16
2022-10-12T22:09:17.020Z,101293.56
2022-10-12T22:11:46.769Z,101288.72
2022-10-12T22:14:17.597Z,101287.72
2022-10-12T22:16:46.298Z,101293.66
2022-10-12T22:19:19.066Z,101301.81
2022-10-12T22:21:49.334Z,101294.19
2022-10-12T22:24:18.503Z,101302.78
2022-10-12T22:26:47.291Z,101290.88
2022-10-12T22:29:15.581Z,101296.03
2022-10-12T22:31:44.606Z,101287.88
2022-10-12T22:34:13.068Z,101283.47
2022-10-12T22:36:41.460Z,101281.66
2022-10-12T22:39:10.132Z,101290.75
2022-10-12T22:41:38.469Z,101293.84
2022-10-12T22:44:06.800Z,101289.16
2022-10-12T22:46:34.982Z,101291.06
2022-10-12T22:49:04.228Z,101281.66
2022-10-12T22:51:39.215Z,101285.50
2022-10-12T22:54:07.544Z,101283.84
2022-10-12T22:56:35.726Z,101290.09
2022-10-12T22:59:07.176Z,101278.34
2022-10-12T23:01:36.245Z,101283.38
2022-10-12T23:04:05.393Z,101276.66
2022-10-12T23:06:33.975Z,101284.41
2022-10-12T23:09:03.181Z,101280.53
2022-10-12T23:11:31.447Z,101280.69
2022-10-12T23:13:59.680Z,101289.81
2022-10-12T23:16:30.653Z,101282.81
2022-10-12T23:19:04.733Z,101280.81
2022-10-12T23:21:34.806Z,101280.38
2022-10-12T23:24:05.067Z,101286.22
2022-10-12T23:26:34.062Z,101281.09
2022-10-12T23:29:02.468Z,101283.28
2022-10-12T23:31:31.466Z,101284.22
2022-10-12T23:34:04.354Z,101287.09
2022-10-12T23:36:32.739Z,101285.69
2022-10-12T23:39:02.463Z,101288.78
2022-10-12T23:41:30.702Z,101286.16
2022-10-12T23:43:58.983Z,101290.13
2022-10-12T23:46:27.324Z,101290.59
2022-10-12T23:48:57.837Z,101290.19
2022-10-12T23:51:26.036Z,101291.63
2022-10-12T23:53:54.229Z,101288.69
2022-10-12T23:56:22.566Z,101297.44
2022-10-12T23:58:50.885Z,101297.97
